Terminal Aerodrome Forecast
Issued by NWS

Home | Current Version | Previous Version | Text Only | Print | Product List | Glossary Off
Versions: 1 2 3 4 5 6 7 8 9 10 11 12 13 14 15 16 17 18 19 20 21

021
FTUS43 KGRB 081133
TAFCWA
TAF
KCWA 081133Z 0812/0912 28009KT P6SM OVC012
     FM081600 27009KT P6SM BKN020
     FM082200 25005KT P6SM -SN OVC015
      TEMPO 0823/0824 3SM -SN
     FM090000 26004KT 1 1/2SM -SN SCT009 OVC015
     FM090400 31005KT 5SM -SN OVC020
     FM090800 33009KT P6SM BKN035=

USA.gov is the U.S. government's official web portal to all federal, state and local government web resources and services.